Time;durP1;ratioP1;P1;durP2;ratioP2;P2;SDS_P1;SDS_P2;PMS_P1;PMS_P2;Temp;Humidity;BMP_temperature;BMP_pressure;BME280_temperature;BME280_humidity;BME280_pressure;Samples;Min_cycle;Max_cycle;Signal;HPM_P1;HPM_P2
2022/01/18 00:00:51;;;;;;;15.37;8.30;;;1.80;99.90;;;;;;5006606;28;20768;-59
2022/01/18 00:03:17;;;;;;;13.40;7.10;;;1.80;99.90;;;;;;5006530;28;20492;-61
2022/01/18 00:05:45;;;;;;;14.47;8.60;;;1.70;99.90;;;;;;5004418;28;20765;-59
2022/01/18 00:08:11;;;;;;;13.43;9.03;;;1.70;99.90;;;;;;5004739;28;20180;-58
2022/01/18 00:10:36;;;;;;;14.27;9.00;;;1.70;99.90;;;;;;5005786;28;20956;-59
2022/01/18 00:20:41;;;;;;;13.83;9.47;;;1.70;99.90;;;;;;5007972;28;20433;-60
2022/01/18 00:23:09;;;;;;;14.83;9.00;;;1.70;99.90;;;;;;5005537;28;20854;-59
2022/01/18 00:25:37;;;;;;;14.50;8.67;;;1.70;99.90;;;;;;5005936;28;20433;-59
2022/01/18 00:28:04;;;;;;;15.77;9.07;;;1.70;99.90;;;;;;5009165;28;20432;-59
2022/01/18 00:35:58;;;;;;;14.63;9.07;;;1.70;99.90;;;;;;5022822;28;20436;-57
2022/01/18 00:40:56;;;;;;;15.70;9.00;;;1.70;99.90;;;;;;5003545;28;20803;-57
2022/01/18 00:43:21;;;;;;;14.53;8.90;;;1.70;99.90;;;;;;5005228;28;20944;-59
2022/01/18 00:45:47;;;;;;;15.70;9.23;;;1.70;99.90;;;;;;5005124;28;20421;-58
2022/01/18 00:48:13;;;;;;;14.03;9.30;;;1.70;99.90;;;;;;5002946;28;20277;-59
2022/01/18 00:50:39;;;;;;;18.70;8.87;;;1.70;99.90;;;;;;5004856;28;20180;-56
2022/01/18 00:53:10;;;;;;;14.03;8.93;;;1.70;99.90;;;;;;5006818;28;20806;-57
2022/01/18 00:55:47;;;;;;;15.40;9.97;;;1.70;99.90;;;;;;5006439;28;20432;-59
2022/01/18 00:58:13;;;;;;;21.53;10.47;;;1.60;99.90;;;;;;5004409;28;20523;-59
2022/01/18 01:00:38;;;;;;;15.40;9.60;;;1.60;99.90;;;;;;5008359;28;20495;-58
2022/01/18 01:03:04;;;;;;;14.50;8.80;;;1.60;99.90;;;;;;5009648;28;20875;-59
2022/01/18 01:05:30;;;;;;;16.13;9.67;;;1.60;99.90;;;;;;5009548;28;20176;-58
2022/01/18 01:07:55;;;;;;;16.30;9.50;;;1.60;99.90;;;;;;5007756;28;20180;-63
2022/01/18 01:10:21;;;;;;;14.80;8.77;;;1.60;99.90;;;;;;5006974;28;20671;-57
2022/01/18 01:12:47;;;;;;;16.57;9.20;;;1.60;99.90;;;;;;5006522;28;20260;-59
2022/01/18 01:15:15;;;;;;;15.00;9.23;;;1.60;99.90;;;;;;5007353;28;20191;-57
2022/01/18 01:34:22;;;;;;;;;;;;;;;;;;;;;
2022/01/18 01:37:02;;;;;;;13.20;8.07;;;1.40;99.90;;;;;;5005553;28;20459;-58
2022/01/18 01:44:56;;;;;;;13.93;8.00;;;1.40;99.90;;;;;;5001894;28;20432;-58
2022/01/18 01:47:33;;;;;;;14.70;9.30;;;1.40;99.90;;;;;;5005033;28;20525;-60
2022/01/18 01:50:00;;;;;;;18.17;10.17;;;1.40;99.90;;;;;;5009982;28;20492;-59
2022/01/18 01:52:26;;;;;;;18.03;8.90;;;1.40;99.90;;;;;;5006263;28;20473;-58
2022/01/18 01:54:54;;;;;;;14.10;9.07;;;1.40;99.90;;;;;;5007870;28;20423;-57
2022/01/18 01:57:20;;;;;;;17.80;9.80;;;1.40;99.90;;;;;;5004975;28;20445;-58
2022/01/18 01:59:45;;;;;;;19.13;9.53;;;1.50;99.90;;;;;;5010323;28;20458;-59
2022/01/18 02:02:11;;;;;;;16.97;9.17;;;1.40;99.90;;;;;;5008677;28;20977;-58
2022/01/18 02:04:37;;;;;;;12.30;7.90;;;1.40;99.90;;;;;;5009350;28;20186;-57
2022/01/18 02:07:03;;;;;;;14.60;8.73;;;1.40;99.90;;;;;;5006454;28;20449;-59
2022/01/18 02:09:29;;;;;;;14.13;8.47;;;1.50;99.90;;;;;;5006171;28;20192;-57
2022/01/18 02:11:56;;;;;;;12.90;8.57;;;1.50;99.90;;;;;;5004452;28;20473;-57
2022/01/18 02:14:24;;;;;;;11.17;7.60;;;1.50;99.90;;;;;;5006878;28;20183;-58
2022/01/18 02:22:18;;;;;;;12.40;7.73;;;1.60;99.90;;;;;;5008671;28;20483;-58
2022/01/18 02:24:44;;;;;;;12.97;7.10;;;1.60;99.90;;;;;;5008606;28;20437;-58
2022/01/18 02:27:10;;;;;;;14.03;7.50;;;1.60;99.90;;;;;;4998102;28;20185;-57
2022/01/18 02:29:36;;;;;;;10.20;7.00;;;1.70;99.90;;;;;;5007613;28;20445;-58
2022/01/18 02:32:03;;;;;;;11.20;7.40;;;1.70;99.90;;;;;;5006875;28;20278;-59
2022/01/18 02:34:29;;;;;;;14.03;7.00;;;1.70;99.90;;;;;;5007069;28;20443;-58
2022/01/18 02:36:57;;;;;;;15.10;6.80;;;1.70;99.90;;;;;;5020736;28;20443;-60
2022/01/18 02:39:33;;;;;;;12.87;7.80;;;1.70;99.90;;;;;;5025651;28;20163;-60
2022/01/18 02:42:05;;;;;;;13.90;7.77;;;1.70;99.90;;;;;;5006096;28;20474;-58
2022/01/18 02:44:33;;;;;;;12.07;8.30;;;1.70;99.90;;;;;;5004806;28;20998;-57
2022/01/18 02:47:00;;;;;;;13.17;8.80;;;1.70;99.90;;;;;;5001244;28;20437;-55
2022/01/18 02:49:27;;;;;;;13.53;8.07;;;1.60;99.90;;;;;;5005784;28;20543;-58
2022/01/18 02:51:53;;;;;;;14.37;8.87;;;1.60;99.90;;;;;;5004330;28;20466;-58
2022/01/18 02:54:19;;;;;;;14.60;8.77;;;1.60;99.90;;;;;;5007997;28;20476;-58
2022/01/18 02:57:10;;;;;;;12.67;7.90;;;1.60;99.90;;;;;;5009880;28;20544;-56
2022/01/18 03:00:04;;;;;;;14.33;7.97;;;1.60;99.90;;;;;;5003325;28;20451;-58
2022/01/18 03:05:15;;;;;;;10.53;7.03;;;1.60;99.90;;;;;;4999916;28;20494;-56
2022/01/18 03:07:42;;;;;;;12.93;8.47;;;1.60;99.90;;;;;;5002104;28;20433;-57
2022/01/18 03:10:10;;;;;;;12.03;7.57;;;1.50;99.90;;;;;;5004688;28;20443;-58
2022/01/18 03:12:35;;;;;;;11.97;7.63;;;1.50;99.90;;;;;;5006658;28;20559;-57
2022/01/18 03:15:01;;;;;;;11.37;7.43;;;1.50;99.90;;;;;;5003352;28;20539;-58
2022/01/18 03:17:27;;;;;;;12.37;7.70;;;1.50;99.90;;;;;;5007552;28;20184;-57
2022/01/18 03:19:52;;;;;;;15.83;7.90;;;1.50;99.90;;;;;;5006327;28;20252;-57
2022/01/18 03:22:18;;;;;;;12.83;8.00;;;1.50;99.90;;;;;;5003697;28;20676;-58
2022/01/18 03:25:03;;;;;;;12.67;7.93;;;1.50;99.90;;;;;;5008220;28;20228;-58
2022/01/18 03:30:13;;;;;;;13.23;8.07;;;1.40;99.90;;;;;;5009223;28;20481;-65
2022/01/18 03:32:39;;;;;;;12.97;7.63;;;1.40;99.90;;;;;;5006959;28;20951;-57
2022/01/18 03:35:08;;;;;;;12.40;7.60;;;1.30;99.90;;;;;;5004568;28;20462;-59
2022/01/18 03:37:33;;;;;;;14.20;7.60;;;1.30;99.90;;;;;;5006981;28;20444;-58
2022/01/18 03:39:59;;;;;;;12.17;7.70;;;1.20;99.90;;;;;;5004795;28;21014;-57
2022/01/18 03:42:37;;;;;;;12.77;8.13;;;1.20;99.90;;;;;;5005970;28;20214;-59
2022/01/18 03:45:06;;;;;;;10.60;7.20;;;1.20;99.90;;;;;;5005408;28;20813;-57
2022/01/18 03:47:33;;;;;;;13.00;7.47;;;1.10;99.90;;;;;;4999379;28;20955;-58
2022/01/18 03:49:59;;;;;;;10.87;7.00;;;1.10;99.90;;;;;;5006063;28;20946;-58
2022/01/18 03:52:25;;;;;;;13.97;7.90;;;1.10;99.90;;;;;;5005472;28;20463;-59
2022/01/18 03:54:51;;;;;;;15.07;8.10;;;1.10;99.90;;;;;;5007817;28;20461;-58
2022/01/18 03:57:17;;;;;;;15.40;8.50;;;1.10;99.90;;;;;;5005990;28;20329;-58
2022/01/18 03:59:44;;;;;;;13.37;7.67;;;1.00;99.90;;;;;;5006259;28;20545;-58
2022/01/18 04:02:10;;;;;;;11.77;7.20;;;1.10;99.90;;;;;;5007875;28;20488;-59
2022/01/18 04:04:37;;;;;;;13.37;6.83;;;1.10;99.90;;;;;;5007871;28;20529;-59
2022/01/18 04:07:04;;;;;;;14.40;8.60;;;1.10;99.90;;;;;;5006240;28;20453;-62
2022/01/18 04:09:30;;;;;;;12.50;8.00;;;1.10;99.90;;;;;;5002920;28;20440;-58
2022/01/18 04:11:55;;;;;;;12.63;7.93;;;1.20;99.90;;;;;;5004802;28;20465;-59
2022/01/18 04:14:21;;;;;;;15.50;8.03;;;1.10;99.90;;;;;;5008266;28;20719;-58
2022/01/18 04:27:26;;;;;;;14.83;8.83;;;1.10;99.90;;;;;;5006210;28;21071;-58
2022/01/18 04:29:51;;;;;;;11.10;8.07;;;1.10;99.90;;;;;;5009569;28;20425;-57
2022/01/18 04:32:17;;;;;;;12.80;8.07;;;1.10;99.90;;;;;;5011667;28;20560;-60
2022/01/18 04:34:43;;;;;;;12.80;7.30;;;1.10;99.90;;;;;;5011621;28;20286;-58
2022/01/18 04:37:08;;;;;;;13.67;7.37;;;1.10;99.90;;;;;;5007461;28;20181;-59
2022/01/18 04:39:38;;;;;;;10.23;6.60;;;1.10;99.90;;;;;;5011043;28;20182;-60
2022/01/18 04:42:11;;;;;;;13.53;7.00;;;1.10;99.90;;;;;;5021672;23;20257;-60
2022/01/18 04:49:51;;;;;;;10.33;6.27;;;1.10;99.90;;;;;;4996383;28;21020;-61
2022/01/18 04:52:17;;;;;;;13.20;7.47;;;1.10;99.90;;;;;;4990666;28;20497;-61
2022/01/18 04:54:45;;;;;;;12.13;6.20;;;1.10;99.90;;;;;;4987678;28;20439;-59
2022/01/18 04:59:37;;;;;;;9.27;6.00;;;1.10;99.90;;;;;;4983895;28;20448;-55
2022/01/18 05:02:03;;;;;;;12.40;7.23;;;1.10;99.90;;;;;;4987287;28;20564;-60
2022/01/18 05:04:29;;;;;;;16.07;9.80;;;1.10;99.90;;;;;;5001042;28;20176;-61
2022/01/18 05:07:00;;;;;;;15.30;9.10;;;1.20;99.90;;;;;;4988319;28;20450;-61
2022/01/18 05:09:25;;;;;;;13.70;7.93;;;1.20;99.90;;;;;;4987121;28;20180;-60
2022/01/18 05:12:04;;;;;;;9.27;6.47;;;1.20;99.90;;;;;;4990481;28;20454;-60
2022/01/18 05:14:35;;;;;;;10.80;6.30;;;1.30;99.90;;;;;;4983785;28;20424;-61
2022/01/18 05:17:32;;;;;;;13.60;7.03;;;1.30;99.90;;;;;;4983359;28;20458;-61
2022/01/18 05:20:37;;;;;;;13.23;8.07;;;1.30;99.90;;;;;;4981397;28;20450;-61
2022/01/18 05:23:02;;;;;;;12.00;8.17;;;1.30;99.90;;;;;;4989481;28;20487;-60
2022/01/18 05:25:29;;;;;;;14.30;7.80;;;1.30;99.90;;;;;;4986917;28;20447;-61
2022/01/18 05:27:59;;;;;;;11.77;7.63;;;1.30;99.90;;;;;;4986643;28;20442;-61
2022/01/18 05:30:26;;;;;;;11.57;7.87;;;1.30;99.90;;;;;;4985346;28;20498;-60
2022/01/18 05:32:52;;;;;;;13.90;8.27;;;1.20;99.90;;;;;;4985822;28;20467;-61
2022/01/18 05:35:19;;;;;;;13.00;7.47;;;1.20;99.90;;;;;;4984091;28;20431;-60
2022/01/18 05:37:46;;;;;;;10.27;6.90;;;1.20;99.90;;;;;;4981761;28;20173;-61
2022/01/18 05:40:11;;;;;;;13.33;7.90;;;1.20;99.90;;;;;;4976714;28;20429;-60
2022/01/18 05:42:37;;;;;;;13.90;8.50;;;1.20;99.90;;;;;;4984504;28;20909;-61
2022/01/18 05:45:03;;;;;;;19.97;10.03;;;1.20;99.90;;;;;;4998361;28;20858;-59
2022/01/18 05:47:29;;;;;;;17.80;10.40;;;1.20;99.90;;;;;;4990109;28;20172;-60
2022/01/18 05:49:55;;;;;;;14.80;9.60;;;1.20;99.90;;;;;;4988335;28;20784;-60
2022/01/18 05:52:21;;;;;;;18.60;11.17;;;1.20;99.90;;;;;;4987840;28;20326;-61
2022/01/18 05:54:46;;;;;;;14.97;9.30;;;1.20;99.90;;;;;;4991614;28;20449;-61
2022/01/18 05:57:12;;;;;;;13.47;9.07;;;1.20;99.90;;;;;;4991130;28;20548;-61
2022/01/18 05:59:44;;;;;;;19.40;10.30;;;1.30;99.90;;;;;;4983155;28;20184;-61
2022/01/18 06:02:18;;;;;;;19.57;10.67;;;1.30;99.90;;;;;;4977038;28;20215;-64
2022/01/18 06:07:30;;;;;;;14.63;8.17;;;1.30;99.90;;;;;;4996702;28;20444;-63
2022/01/18 06:09:56;;;;;;;15.63;9.00;;;1.30;99.90;;;;;;4989216;28;20756;-61
2022/01/18 06:12:27;;;;;;;14.67;8.53;;;1.30;99.90;;;;;;4991623;28;20490;-61
2022/01/18 06:14:53;;;;;;;15.77;8.20;;;1.40;99.90;;;;;;4999706;28;20414;-61
2022/01/18 06:17:18;;;;;;;13.60;8.97;;;1.40;99.90;;;;;;4983924;28;20426;-60
2022/01/18 06:19:44;;;;;;;12.90;8.73;;;1.40;99.90;;;;;;4996199;28;20658;-61
2022/01/18 06:22:10;;;;;;;18.20;9.63;;;1.40;99.90;;;;;;4989081;28;20204;-61
2022/01/18 06:24:36;;;;;;;15.20;9.70;;;1.40;99.90;;;;;;4989148;28;20181;-61
2022/01/18 06:27:01;;;;;;;14.57;8.33;;;1.50;99.90;;;;;;4990465;28;20424;-59
2022/01/18 06:29:27;;;;;;;21.00;10.73;;;1.50;99.90;;;;;;4991614;28;20172;-61
2022/01/18 06:31:53;;;;;;;16.07;10.00;;;1.50;99.90;;;;;;4991837;28;20199;-61
2022/01/18 06:34:18;;;;;;;14.57;8.47;;;1.50;99.90;;;;;;4993074;28;20188;-60
2022/01/18 06:36:44;;;;;;;17.43;9.33;;;1.50;99.90;;;;;;4989139;28;20561;-62
2022/01/18 06:39:10;;;;;;;12.50;7.70;;;1.50;99.90;;;;;;4990618;28;20179;-60
2022/01/18 06:41:36;;;;;;;12.07;9.23;;;1.50;99.90;;;;;;4989072;28;20484;-59
2022/01/18 06:44:02;;;;;;;15.60;9.10;;;1.50;99.90;;;;;;4989804;28;20742;-60
2022/01/18 06:46:28;;;;;;;14.70;8.40;;;1.50;99.90;;;;;;4997776;28;20197;-61
2022/01/18 06:48:53;;;;;;;23.93;10.93;;;1.50;99.90;;;;;;4997469;28;20908;-60
2022/01/18 06:51:19;;;;;;;15.13;8.63;;;1.50;99.90;;;;;;4986902;28;20185;-61
2022/01/18 06:53:48;;;;;;;20.90;11.70;;;1.50;99.90;;;;;;4991168;28;20193;-61
2022/01/18 06:56:17;;;;;;;17.73;10.23;;;1.50;99.90;;;;;;4980812;28;20698;-60
2022/01/18 06:58:44;;;;;;;21.83;10.77;;;1.50;99.90;;;;;;4988689;28;20423;-61
2022/01/18 07:01:11;;;;;;;28.00;13.83;;;1.60;99.90;;;;;;4992641;28;20433;-61
2022/01/18 07:03:37;;;;;;;22.87;11.13;;;1.60;99.90;;;;;;4989168;28;20474;-60
2022/01/18 07:06:03;;;;;;;23.53;10.70;;;1.60;99.90;;;;;;5000398;28;20421;-61
2022/01/18 07:08:30;;;;;;;21.20;10.53;;;1.60;99.90;;;;;;4990015;28;20441;-60
2022/01/18 07:10:56;;;;;;;16.13;8.50;;;1.70;99.90;;;;;;4988468;28;20433;-61
2022/01/18 07:13:22;;;;;;;10.37;7.73;;;1.70;99.90;;;;;;4990516;28;20875;-60
2022/01/18 07:15:48;;;;;;;15.57;7.90;;;1.70;99.90;;;;;;4990113;28;21099;-60
2022/01/18 07:18:14;;;;;;;11.13;7.37;;;1.70;99.90;;;;;;4988444;28;20462;-63
2022/01/18 07:20:41;;;;;;;14.83;7.90;;;1.70;99.90;;;;;;4989561;28;20609;-61
2022/01/18 07:23:12;;;;;;;10.77;6.80;;;1.70;99.90;;;;;;4993497;28;20478;-59
2022/01/18 07:25:43;;;;;;;11.10;7.03;;;1.70;99.90;;;;;;4989258;28;21193;-59
2022/01/18 07:28:10;;;;;;;11.50;6.93;;;1.70;99.90;;;;;;4972846;28;20959;-60
2022/01/18 07:30:37;;;;;;;11.17;6.60;;;1.80;99.90;;;;;;4988399;28;20436;-57
2022/01/18 07:33:04;;;;;;;10.83;6.73;;;1.80;99.90;;;;;;5005704;28;20455;-60
2022/01/18 07:35:31;;;;;;;12.23;6.60;;;1.80;99.90;;;;;;5010772;28;20966;-60
2022/01/18 07:37:59;;;;;;;11.10;6.70;;;1.90;99.90;;;;;;4995559;28;20904;-59
2022/01/18 07:40:25;;;;;;;10.93;7.10;;;1.90;99.90;;;;;;5002567;28;20430;-61
2022/01/18 07:42:50;;;;;;;13.10;7.17;;;1.90;99.90;;;;;;4994501;28;20467;-59
2022/01/18 07:45:16;;;;;;;13.83;7.30;;;1.90;99.90;;;;;;4997810;28;20777;-61
2022/01/18 07:47:42;;;;;;;9.90;5.73;;;1.90;99.90;;;;;;4979382;28;20191;-59
2022/01/18 07:50:08;;;;;;;12.10;6.50;;;1.90;99.90;;;;;;4975018;28;20249;-61
2022/01/18 07:52:35;;;;;;;10.50;6.87;;;2.00;99.90;;;;;;4983611;28;20258;-61
2022/01/18 07:55:03;;;;;;;9.50;6.23;;;2.00;99.90;;;;;;4990513;28;20426;-61
2022/01/18 07:57:28;;;;;;;10.33;6.47;;;2.00;99.90;;;;;;4987619;28;20979;-60
2022/01/18 07:59:54;;;;;;;8.47;5.40;;;2.00;99.90;;;;;;4988051;28;20454;-60
2022/01/18 08:02:20;;;;;;;10.33;5.57;;;2.00;99.90;;;;;;4987903;28;20205;-61
2022/01/18 08:04:45;;;;;;;8.37;6.03;;;2.10;99.90;;;;;;4986835;28;20210;-61
2022/01/18 08:07:11;;;;;;;10.57;6.07;;;2.10;99.90;;;;;;4987648;28;20212;-60
2022/01/18 08:09:36;;;;;;;8.50;5.87;;;2.10;99.90;;;;;;4989529;28;20173;-61
2022/01/18 08:12:04;;;;;;;8.60;5.80;;;2.10;99.90;;;;;;4990080;28;20200;-61
2022/01/18 08:14:31;;;;;;;10.30;5.60;;;2.10;99.90;;;;;;4989525;28;20191;-61
2022/01/18 08:17:00;;;;;;;8.93;6.27;;;2.10;99.90;;;;;;4991854;28;20451;-61
2022/01/18 08:19:30;;;;;;;10.80;6.03;;;2.10;99.90;;;;;;4987963;28;20419;-60
2022/01/18 08:21:57;;;;;;;9.50;6.10;;;2.20;99.90;;;;;;4989041;28;20474;-60
2022/01/18 08:24:23;;;;;;;9.23;5.63;;;2.20;99.90;;;;;;4972722;28;20491;-60
2022/01/18 08:26:48;;;;;;;10.80;5.97;;;2.20;99.90;;;;;;4989168;28;20503;-60
2022/01/18 08:29:14;;;;;;;9.10;5.60;;;2.30;99.90;;;;;;4998221;28;20461;-60
2022/01/18 08:31:41;;;;;;;9.23;5.70;;;2.30;99.90;;;;;;4987702;28;20209;-61
2022/01/18 08:34:07;;;;;;;7.40;5.00;;;2.30;99.90;;;;;;4996150;28;20525;-60
2022/01/18 08:36:33;;;;;;;9.63;5.60;;;2.30;99.90;;;;;;4987129;28;20925;-61
2022/01/18 08:39:00;;;;;;;9.00;6.27;;;2.30;99.90;;;;;;4988721;28;20427;-61
2022/01/18 08:41:26;;;;;;;9.70;6.43;;;2.30;99.90;;;;;;4986497;28;20192;-61
2022/01/18 08:43:53;;;;;;;10.47;5.93;;;2.30;99.90;;;;;;4987126;28;20518;-60
2022/01/18 08:46:19;;;;;;;10.13;5.60;;;2.30;99.90;;;;;;4988659;28;20435;-60
2022/01/18 08:48:45;;;;;;;10.90;5.70;;;2.40;99.90;;;;;;5007610;28;20830;-59
2022/01/18 08:51:11;;;;;;;8.80;5.50;;;2.40;99.90;;;;;;4995313;28;20463;-60
2022/01/18 08:53:38;;;;;;;9.80;6.00;;;2.40;99.90;;;;;;4987323;28;20526;-60
2022/01/18 08:56:05;;;;;;;8.70;5.77;;;2.50;99.90;;;;;;4985317;28;20429;-60
2022/01/18 08:58:32;;;;;;;10.57;6.87;;;2.50;99.90;;;;;;4987505;28;20440;-60
2022/01/18 09:00:58;;;;;;;10.80;6.93;;;2.50;99.90;;;;;;4994899;28;20426;-61
2022/01/18 09:03:24;;;;;;;8.23;5.53;;;2.50;99.90;;;;;;4997445;28;20467;-60
2022/01/18 09:05:50;;;;;;;7.93;5.07;;;2.50;99.90;;;;;;5002012;28;20492;-61
2022/01/18 09:08:18;;;;;;;8.60;5.80;;;2.60;99.90;;;;;;4994806;28;20496;-58
2022/01/18 09:10:44;;;;;;;10.00;5.50;;;2.50;99.90;;;;;;4985602;28;20442;-60
2022/01/18 09:13:10;;;;;;;9.13;6.00;;;2.60;99.90;;;;;;4998347;28;20594;-60
2022/01/18 09:15:36;;;;;;;9.60;5.60;;;2.60;99.90;;;;;;4986112;28;20917;-60
2022/01/18 09:18:02;;;;;;;9.47;5.97;;;2.60;99.90;;;;;;4992712;28;20192;-59
2022/01/18 09:20:28;;;;;;;10.97;5.77;;;2.70;99.90;;;;;;4991837;28;20189;-61
2022/01/18 09:22:53;;;;;;;9.40;5.47;;;2.70;99.90;;;;;;4990031;28;20456;-60
2022/01/18 09:25:23;;;;;;;10.70;6.53;;;2.70;99.90;;;;;;5000350;28;20429;-60
2022/01/18 09:27:50;;;;;;;13.83;8.10;;;2.70;99.90;;;;;;4992709;28;20173;-60
2022/01/18 09:30:16;;;;;;;13.33;6.13;;;2.70;99.90;;;;;;4991632;28;20506;-60
2022/01/18 09:32:44;;;;;;;12.10;7.07;;;2.70;99.90;;;;;;4994175;28;20474;-60
2022/01/18 09:35:11;;;;;;;11.87;6.07;;;2.70;99.90;;;;;;4994397;28;20780;-61
2022/01/18 09:37:37;;;;;;;14.37;6.50;;;2.70;99.90;;;;;;4991764;28;20880;-61
2022/01/18 09:40:04;;;;;;;13.50;6.30;;;2.70;99.90;;;;;;4989846;28;20477;-59
2022/01/18 09:42:35;;;;;;;10.80;6.10;;;2.70;99.90;;;;;;4991893;28;20458;-60
2022/01/18 09:45:05;;;;;;;10.63;6.13;;;2.70;99.90;;;;;;4994799;28;20497;-61
2022/01/18 09:47:31;;;;;;;11.10;5.53;;;2.70;99.90;;;;;;4991902;28;20521;-59
2022/01/18 09:49:58;;;;;;;7.17;5.60;;;2.80;99.90;;;;;;4989024;28;20926;-60
2022/01/18 09:52:24;;;;;;;6.80;4.93;;;2.80;99.90;;;;;;4991583;28;20697;-61
2022/01/18 09:54:50;;;;;;;7.80;4.93;;;2.80;99.90;;;;;;4991129;28;20439;-60
2022/01/18 09:57:16;;;;;;;6.60;5.10;;;2.80;99.90;;;;;;4984557;28;20450;-59
2022/01/18 09:59:42;;;;;;;7.80;4.83;;;2.80;99.90;;;;;;4987055;28;20188;-60
2022/01/18 10:02:10;;;;;;;11.60;5.30;;;2.90;99.90;;;;;;5003017;28;20445;-59
2022/01/18 10:04:40;;;;;;;8.40;4.80;;;2.90;99.90;;;;;;5006021;28;20502;-60
2022/01/18 10:07:06;;;;;;;7.17;4.40;;;2.90;99.90;;;;;;4990494;28;20486;-60
2022/01/18 10:09:32;;;;;;;6.87;4.33;;;2.90;99.90;;;;;;4990691;28;20439;-59
2022/01/18 10:12:11;;;;;;;8.30;3.80;;;2.90;99.90;;;;;;4991506;28;20208;-59
2022/01/18 10:14:58;;;;;;;6.17;3.97;;;2.90;99.90;;;;;;4986715;28;20184;-60
2022/01/18 10:17:31;;;;;;;9.67;4.43;;;2.80;99.90;;;;;;4986488;28;20438;-61
2022/01/18 10:20:06;;;;;;;8.80;4.60;;;2.80;99.90;;;;;;4993726;28;20420;-60
2022/01/18 10:22:40;;;;;;;7.07;4.20;;;2.90;99.90;;;;;;4982903;28;20437;-61
2022/01/18 10:25:28;;;;;;;6.37;4.20;;;2.90;99.90;;;;;;4985767;28;20423;-60
2022/01/18 10:27:55;;;;;;;8.40;4.40;;;2.90;99.90;;;;;;4984070;28;20429;-60
2022/01/18 10:30:43;;;;;;;8.13;4.17;;;2.90;99.90;;;;;;4991955;28;20410;-60
2022/01/18 10:33:21;;;;;;;7.40;4.33;;;2.90;99.90;;;;;;4989127;28;20475;-61
2022/01/18 10:36:09;;;;;;;6.40;4.30;;;2.90;99.90;;;;;;4990187;28;20504;-60
2022/01/18 10:38:35;;;;;;;7.53;4.57;;;2.80;99.90;;;;;;4986255;28;20428;-58
2022/01/18 10:41:27;;;;;;;6.50;4.17;;;2.80;99.90;;;;;;4986630;28;20885;-60
2022/01/18 10:44:10;;;;;;;7.30;4.50;;;2.80;99.90;;;;;;5008822;23;20488;-54
2022/01/18 10:46:38;;;;;;;8.50;3.47;;;2.70;99.90;;;;;;4988705;28;20419;-56
2022/01/18 10:49:05;;;;;;;8.90;4.10;;;2.70;99.90;;;;;;4990686;28;20432;-59
2022/01/18 10:51:33;;;;;;;5.07;3.57;;;2.80;99.90;;;;;;5004227;28;20427;-55
2022/01/18 10:54:10;;;;;;;5.03;4.00;;;2.80;99.90;;;;;;4991362;28;20449;-57
2022/01/18 10:56:44;;;;;;;4.10;3.60;;;2.90;99.90;;;;;;4988872;28;20435;-56
2022/01/18 10:59:24;;;;;;;4.93;2.90;;;3.00;99.90;;;;;;4986837;28;20416;-56
2022/01/18 11:02:18;;;;;;;7.83;3.50;;;3.10;99.90;;;;;;4984806;28;20992;-56
2022/01/18 11:04:52;;;;;;;4.40;3.00;;;3.10;99.90;;;;;;4987159;28;20424;-57
2022/01/18 11:07:21;;;;;;;6.63;3.70;;;3.10;99.90;;;;;;4989238;28;20619;-56
2022/01/18 11:09:48;;;;;;;3.87;3.03;;;3.20;99.90;;;;;;4986521;28;20439;-58
2022/01/18 11:12:14;;;;;;;5.97;3.50;;;3.30;99.90;;;;;;4981196;28;20463;-56
2022/01/18 11:14:45;;;;;;;5.07;2.80;;;3.30;99.90;;;;;;4988285;28;20728;-57
2022/01/18 11:17:20;;;;;;;5.80;3.83;;;3.30;99.90;;;;;;5002857;28;20430;-60
2022/01/18 11:19:48;;;;;;;6.00;3.37;;;3.40;99.90;;;;;;5003894;28;20420;-61
2022/01/18 11:22:14;;;;;;;3.40;3.03;;;3.40;99.90;;;;;;4994824;28;20845;-55
2022/01/18 11:24:42;;;;;;;4.57;3.00;;;3.50;99.90;;;;;;4987606;28;20474;-57
2022/01/18 11:27:13;;;;;;;5.77;3.10;;;3.50;99.90;;;;;;4986958;28;20483;-57
2022/01/18 11:29:40;;;;;;;6.90;3.30;;;3.50;99.90;;;;;;4988960;28;20854;-58
2022/01/18 11:32:06;;;;;;;5.17;3.73;;;3.50;99.90;;;;;;4994018;28;20830;-57
2022/01/18 11:35:02;;;;;;;4.00;3.00;;;3.60;99.90;;;;;;4986576;28;20452;-58
2022/01/18 11:37:38;;;;;;;4.63;2.77;;;3.60;99.90;;;;;;5006264;28;20415;-58
2022/01/18 11:40:08;;;;;;;4.90;3.00;;;3.60;99.90;;;;;;5008269;28;20426;-60
2022/01/18 11:42:53;;;;;;;4.87;3.37;;;3.60;99.90;;;;;;5004514;28;20416;-57
2022/01/18 11:45:24;;;;;;;5.43;3.70;;;3.60;99.90;;;;;;4995205;28;20590;-57
2022/01/18 11:48:22;;;;;;;4.17;3.20;;;3.60;99.90;;;;;;4984671;28;20501;-57
2022/01/18 11:51:16;;;;;;;8.27;3.30;;;3.60;99.90;;;;;;4964215;28;20439;-57
2022/01/18 11:53:55;;;;;;;5.90;2.77;;;3.60;99.90;;;;;;5000142;28;20463;-57
2022/01/18 11:56:35;;;;;;;3.60;3.00;;;3.60;99.90;;;;;;4981003;28;20443;-56
2022/01/18 11:59:18;;;;;;;4.30;2.70;;;3.60;99.90;;;;;;4976387;28;20516;-56
2022/01/18 12:01:56;;;;;;;5.87;5.37;;;3.60;99.90;;;;;;4982743;28;21015;-57
2022/01/18 12:04:54;;;;;;;6.00;3.90;;;3.60;99.90;;;;;;4983190;28;20750;-57
2022/01/18 12:07:36;;;;;;;7.57;4.13;;;3.60;99.90;;;;;;4980483;28;21097;-57
2022/01/18 12:10:29;;;;;;;4.10;3.17;;;3.60;99.90;;;;;;4976091;28;20490;-59
2022/01/18 12:13:04;;;;;;;5.90;3.80;;;3.70;99.90;;;;;;4980528;28;20467;-58
2022/01/18 12:15:32;;;;;;;4.73;3.50;;;3.70;99.90;;;;;;4977251;28;20921;-57
2022/01/18 12:18:21;;;;;;;4.53;3.73;;;3.70;99.90;;;;;;4981791;28;20499;-56
2022/01/18 12:20:49;;;;;;;6.80;4.50;;;3.70;99.90;;;;;;4980390;28;20431;-58
2022/01/18 12:23:29;;;;;;;5.17;3.70;;;3.70;99.90;;;;;;4979130;28;21039;-56
2022/01/18 12:26:14;;;;;;;5.30;3.27;;;3.70;99.90;;;;;;4983353;28;20908;-58
2022/01/18 12:34:43;;;;;;;5.23;3.20;;;3.80;99.90;;;;;;4981660;28;20483;-57
2022/01/18 12:37:13;;;;;;;4.63;3.07;;;3.80;99.90;;;;;;4981341;28;20796;-57
2022/01/18 12:45:20;;;;;;;4.20;3.53;;;3.90;99.90;;;;;;4978774;28;20486;-57
2022/01/18 12:47:59;;;;;;;5.73;3.70;;;3.90;99.90;;;;;;4977165;28;20436;-57
2022/01/18 12:50:29;;;;;;;5.37;3.70;;;3.90;99.90;;;;;;4986212;28;20424;-57
2022/01/18 12:53:03;;;;;;;10.00;5.50;;;4.00;99.90;;;;;;4986305;28;20467;-57
2022/01/18 12:55:44;;;;;;;8.90;4.80;;;4.00;99.90;;;;;;4987368;28;20543;-57
2022/01/18 12:58:26;;;;;;;7.57;4.13;;;4.00;99.90;;;;;;5007413;28;20424;-58
2022/01/18 13:00:53;;;;;;;7.30;4.70;;;4.10;99.90;;;;;;5010131;28;20422;-58
2022/01/18 13:03:24;;;;;;;16.47;7.37;;;4.10;99.90;;;;;;4996021;28;20493;-54
2022/01/18 13:05:56;;;;;;;9.13;5.70;;;4.10;99.90;;;;;;4987242;28;20440;-58
2022/01/18 13:08:37;;;;;;;11.60;6.10;;;4.10;99.90;;;;;;4988569;28;20443;-57
2022/01/18 13:11:03;;;;;;;12.27;6.00;;;4.10;99.90;;;;;;4983108;28;20799;-58
2022/01/18 13:13:31;;;;;;;10.37;4.50;;;4.10;99.90;;;;;;4982838;28;20574;-58
2022/01/18 13:26:54;;;;;;;13.63;7.03;;;4.10;99.90;;;;;;4981215;28;20429;-58
2022/01/18 13:29:23;;;;;;;8.20;5.70;;;4.10;99.90;;;;;;4980696;28;20482;-57
2022/01/18 13:32:10;;;;;;;9.30;6.83;;;4.00;99.90;;;;;;4980970;28;20641;-57
2022/01/18 13:34:38;;;;;;;13.90;7.50;;;4.00;99.90;;;;;;4981309;28;20456;-56
2022/01/18 13:37:07;;;;;;;12.70;8.07;;;4.10;99.90;;;;;;4980424;28;20438;-58
2022/01/18 13:39:36;;;;;;;12.73;6.97;;;4.00;99.90;;;;;;4980799;28;21001;-60
2022/01/18 13:42:04;;;;;;;9.13;6.90;;;4.00;99.90;;;;;;4981699;28;20456;-57
2022/01/18 13:44:31;;;;;;;13.67;7.70;;;4.00;99.90;;;;;;4984235;28;20809;-58
2022/01/18 13:47:12;;;;;;;11.67;7.80;;;4.00;99.90;;;;;;4985364;28;20440;-56
2022/01/18 13:49:38;;;;;;;15.57;8.83;;;4.00;99.90;;;;;;4982019;28;20442;-60
2022/01/18 13:52:07;;;;;;;24.10;8.33;;;4.00;99.90;;;;;;4980013;28;20455;-57
2022/01/18 13:54:45;;;;;;;15.90;9.10;;;3.90;99.90;;;;;;4981210;28;20773;-58
2022/01/18 13:57:11;;;;;;;13.83;8.43;;;3.90;99.90;;;;;;4980774;28;20489;-55
2022/01/18 13:59:37;;;;;;;13.00;8.80;;;3.90;99.90;;;;;;4979494;28;20922;-56
2022/01/18 14:02:14;;;;;;;12.90;8.47;;;3.90;99.90;;;;;;4991012;28;20431;-61
2022/01/18 14:04:40;;;;;;;13.57;8.70;;;3.80;99.90;;;;;;5002680;28;20232;-62
2022/01/18 14:07:06;;;;;;;13.27;7.80;;;3.80;99.90;;;;;;5000564;28;20441;-59
2022/01/18 14:09:32;;;;;;;11.40;8.03;;;3.80;99.90;;;;;;5002173;28;20436;-57
2022/01/18 14:11:57;;;;;;;13.17;7.70;;;3.80;99.90;;;;;;4999555;28;20887;-56
2022/01/18 14:14:33;;;;;;;9.97;6.87;;;3.80;99.90;;;;;;4995456;28;20200;-57
2022/01/18 14:17:11;;;;;;;13.83;8.40;;;3.80;99.90;;;;;;4978184;28;20521;-56
2022/01/18 14:19:39;;;;;;;10.67;6.83;;;3.70;99.90;;;;;;4981286;28;20448;-57
2022/01/18 14:22:26;;;;;;;10.47;7.50;;;3.70;99.90;;;;;;4984145;28;20428;-58
2022/01/18 14:24:58;;;;;;;16.30;8.87;;;3.70;99.90;;;;;;4981280;28;20528;-57
2022/01/18 14:27:31;;;;;;;16.63;8.47;;;3.70;99.90;;;;;;4985085;28;20531;-63
2022/01/18 14:30:09;;;;;;;16.47;8.20;;;3.60;99.90;;;;;;4987261;28;20494;-58
2022/01/18 14:32:43;;;;;;;15.93;8.20;;;3.60;99.90;;;;;;4996078;28;20486;-58
2022/01/18 14:35:20;;;;;;;12.83;7.67;;;3.60;99.90;;;;;;4987074;28;20437;-57